sensor_id;sensor_type;location;lat;lon;timestamp;temperature;humidity
7461;DHT22;6757;52.258;12.840;2023-11-19T00:02:04;3.90;99.90
7461;DHT22;6757;52.258;12.840;2023-11-19T00:04:34;3.90;99.90
7461;DHT22;6757;52.258;12.840;2023-11-19T00:07:06;4.00;99.90
7461;DHT22;6757;52.258;12.840;2023-11-19T00:09:35;4.00;99.90
7461;DHT22;6757;52.258;12.840;2023-11-19T00:12:05;4.00;99.90
7461;DHT22;6757;52.258;12.840;2023-11-19T00:14:33;4.00;99.90
7461;DHT22;6757;52.258;12.840;2023-11-19T00:17:01;4.00;99.90
7461;DHT22;6757;52.258;12.840;2023-11-19T00:19:42;4.00;99.90
7461;DHT22;6757;52.258;12.840;2023-11-19T00:22:11;4.10;99.90
7461;DHT22;6757;52.258;12.840;2023-11-19T00:24:38;4.10;99.90
7461;DHT22;6757;52.258;12.840;2023-11-19T00:27:05;4.10;99.90
7461;DHT22;6757;52.258;12.840;2023-11-19T00:29:34;4.10;99.90
7461;DHT22;6757;52.258;12.840;2023-11-19T00:32:01;4.20;99.90
7461;DHT22;6757;52.258;12.840;2023-11-19T00:34:30;4.20;99.90
7461;DHT22;6757;52.258;12.840;2023-11-19T00:36:58;4.30;99.90
7461;DHT22;6757;52.258;12.840;2023-11-19T00:39:26;4.20;99.90
7461;DHT22;6757;52.258;12.840;2023-11-19T00:41:53;4.30;99.90
7461;DHT22;6757;52.258;12.840;2023-11-19T00:44:21;4.30;99.90
7461;DHT22;6757;52.258;12.840;2023-11-19T00:46:48;4.30;99.90
7461;DHT22;6757;52.258;12.840;2023-11-19T00:49:15;4.10;99.90
7461;DHT22;6757;52.258;12.840;2023-11-19T00:51:42;4.40;99.90
7461;DHT22;6757;52.258;12.840;2023-11-19T00:54:11;4.30;99.90
7461;DHT22;6757;52.258;12.840;2023-11-19T00:56:41;4.40;99.90
7461;DHT22;6757;52.258;12.840;2023-11-19T00:59:08;4.60;99.90
7461;DHT22;6757;52.258;12.840;2023-11-19T01:01:35;4.40;99.90
7461;DHT22;6757;52.258;12.840;2023-11-19T01:04:02;4.40;99.90
7461;DHT22;6757;52.258;12.840;2023-11-19T01:06:30;4.50;99.90
7461;DHT22;6757;52.258;12.840;2023-11-19T01:08:58;4.50;99.90
7461;DHT22;6757;52.258;12.840;2023-11-19T01:11:26;4.70;99.90
7461;DHT22;6757;52.258;12.840;2023-11-19T01:13:57;4.50;99.90
7461;DHT22;6757;52.258;12.840;2023-11-19T01:16:23;4.60;99.90
7461;DHT22;6757;52.258;12.840;2023-11-19T01:18:52;4.50;99.90
7461;DHT22;6757;52.258;12.840;2023-11-19T01:21:20;4.60;99.90
7461;DHT22;6757;52.258;12.840;2023-11-19T01:23:48;4.70;99.90
7461;DHT22;6757;52.258;12.840;2023-11-19T01:26:15;4.70;99.90
7461;DHT22;6757;52.258;12.840;2023-11-19T01:28:42;4.70;99.90
7461;DHT22;6757;52.258;12.840;2023-11-19T01:31:15;4.70;99.90
7461;DHT22;6757;52.258;12.840;2023-11-19T01:33:41;4.80;99.90
7461;DHT22;6757;52.258;12.840;2023-11-19T01:36:09;4.80;99.90
7461;DHT22;6757;52.258;12.840;2023-11-19T01:38:41;4.80;99.90
7461;DHT22;6757;52.258;12.840;2023-11-19T01:41:08;4.80;99.90
7461;DHT22;6757;52.258;12.840;2023-11-19T01:43:37;4.80;99.90
7461;DHT22;6757;52.258;12.840;2023-11-19T01:46:06;4.80;99.90
7461;DHT22;6757;52.258;12.840;2023-11-19T01:48:38;5.00;99.90
7461;DHT22;6757;52.258;12.840;2023-11-19T01:51:08;4.90;99.90
7461;DHT22;6757;52.258;12.840;2023-11-19T01:53:36;4.90;99.90
7461;DHT22;6757;52.258;12.840;2023-11-19T01:56:06;4.90;99.90
7461;DHT22;6757;52.258;12.840;2023-11-19T01:58:35;4.90;99.90
7461;DHT22;6757;52.258;12.840;2023-11-19T02:01:02;4.90;99.90
7461;DHT22;6757;52.258;12.840;2023-11-19T02:03:31;5.00;99.90
7461;DHT22;6757;52.258;12.840;2023-11-19T02:06:00;5.00;99.90
7461;DHT22;6757;52.258;12.840;2023-11-19T02:08:27;5.00;99.90
7461;DHT22;6757;52.258;12.840;2023-11-19T02:10:56;5.00;99.90
7461;DHT22;6757;52.258;12.840;2023-11-19T02:13:23;5.00;99.90
7461;DHT22;6757;52.258;12.840;2023-11-19T02:15:51;4.80;99.90
7461;DHT22;6757;52.258;12.840;2023-11-19T02:18:24;4.80;99.90
7461;DHT22;6757;52.258;12.840;2023-11-19T02:20:53;4.90;99.90
7461;DHT22;6757;52.258;12.840;2023-11-19T02:23:22;4.90;99.90
7461;DHT22;6757;52.258;12.840;2023-11-19T02:26:03;4.80;99.90
7461;DHT22;6757;52.258;12.840;2023-11-19T02:28:47;4.80;99.90
7461;DHT22;6757;52.258;12.840;2023-11-19T02:31:14;4.80;99.90
7461;DHT22;6757;52.258;12.840;2023-11-19T02:33:41;4.70;99.90
7461;DHT22;6757;52.258;12.840;2023-11-19T02:36:09;4.70;99.90
7461;DHT22;6757;52.258;12.840;2023-11-19T02:38:37;4.70;99.90
7461;DHT22;6757;52.258;12.840;2023-11-19T02:41:05;4.70;99.90
7461;DHT22;6757;52.258;12.840;2023-11-19T02:43:34;4.70;99.90
7461;DHT22;6757;52.258;12.840;2023-11-19T02:46:04;4.60;99.90
7461;DHT22;6757;52.258;12.840;2023-11-19T02:48:32;4.70;99.90
7461;DHT22;6757;52.258;12.840;2023-11-19T02:51:00;4.60;99.90
7461;DHT22;6757;52.258;12.840;2023-11-19T02:53:28;4.70;99.90
7461;DHT22;6757;52.258;12.840;2023-11-19T02:55:55;4.60;99.90
7461;DHT22;6757;52.258;12.840;2023-11-19T02:58:26;4.60;99.90
7461;DHT22;6757;52.258;12.840;2023-11-19T03:00:56;4.60;99.90
7461;DHT22;6757;52.258;12.840;2023-11-19T03:03:28;4.70;99.90
7461;DHT22;6757;52.258;12.840;2023-11-19T03:06:04;4.50;99.90
7461;DHT22;6757;52.258;12.840;2023-11-19T03:08:35;4.50;99.90
7461;DHT22;6757;52.258;12.840;2023-11-19T03:11:03;4.50;99.90
7461;DHT22;6757;52.258;12.840;2023-11-19T03:13:30;4.50;99.90
7461;DHT22;6757;52.258;12.840;2023-11-19T03:15:57;4.50;99.90
7461;DHT22;6757;52.258;12.840;2023-11-19T03:18:27;4.50;99.90
7461;DHT22;6757;52.258;12.840;2023-11-19T03:20:55;4.50;99.90
7461;DHT22;6757;52.258;12.840;2023-11-19T03:23:23;4.60;99.90
7461;DHT22;6757;52.258;12.840;2023-11-19T03:25:53;4.50;99.90
7461;DHT22;6757;52.258;12.840;2023-11-19T03:28:19;4.50;99.90
7461;DHT22;6757;52.258;12.840;2023-11-19T03:30:47;4.50;99.90
7461;DHT22;6757;52.258;12.840;2023-11-19T03:33:15;4.50;99.90
7461;DHT22;6757;52.258;12.840;2023-11-19T03:35:43;4.70;99.90
7461;DHT22;6757;52.258;12.840;2023-11-19T03:38:11;5.20;99.90
7461;DHT22;6757;52.258;12.840;2023-11-19T03:40:37;4.50;99.90
7461;DHT22;6757;52.258;12.840;2023-11-19T03:43:06;4.40;99.90
7461;DHT22;6757;52.258;12.840;2023-11-19T03:45:34;4.50;99.90
7461;DHT22;6757;52.258;12.840;2023-11-19T03:48:03;4.50;99.90
7461;DHT22;6757;52.258;12.840;2023-11-19T03:50:31;4.50;99.90
7461;DHT22;6757;52.258;12.840;2023-11-19T03:53:00;4.50;99.90
7461;DHT22;6757;52.258;12.840;2023-11-19T03:55:28;4.50;99.90
7461;DHT22;6757;52.258;12.840;2023-11-19T03:57:55;4.50;99.90
7461;DHT22;6757;52.258;12.840;2023-11-19T04:00:21;4.50;99.90
7461;DHT22;6757;52.258;12.840;2023-11-19T04:02:49;4.50;99.90
7461;DHT22;6757;52.258;12.840;2023-11-19T04:05:18;4.50;99.90
7461;DHT22;6757;52.258;12.840;2023-11-19T04:07:45;4.50;99.90
7461;DHT22;6757;52.258;12.840;2023-11-19T04:10:15;4.50;99.90
7461;DHT22;6757;52.258;12.840;2023-11-19T04:12:43;4.50;99.90
7461;DHT22;6757;52.258;12.840;2023-11-19T04:15:11;4.50;99.90
7461;DHT22;6757;52.258;12.840;2023-11-19T04:17:38;4.60;99.90
7461;DHT22;6757;52.258;12.840;2023-11-19T04:20:07;4.60;99.90
7461;DHT22;6757;52.258;12.840;2023-11-19T04:22:37;4.60;99.90
7461;DHT22;6757;52.258;12.840;2023-11-19T04:25:05;4.60;99.90
7461;DHT22;6757;52.258;12.840;2023-11-19T04:27:34;4.60;99.90
7461;DHT22;6757;52.258;12.840;2023-11-19T04:30:02;4.60;99.90
7461;DHT22;6757;52.258;12.840;2023-11-19T04:32:30;4.60;99.90
7461;DHT22;6757;52.258;12.840;2023-11-19T04:34:57;4.70;99.90
7461;DHT22;6757;52.258;12.840;2023-11-19T04:37:25;4.60;99.90
7461;DHT22;6757;52.258;12.840;2023-11-19T04:39:52;4.50;99.90
7461;DHT22;6757;52.258;12.840;2023-11-19T04:42:19;4.60;99.90
7461;DHT22;6757;52.258;12.840;2023-11-19T04:44:47;4.80;99.90
7461;DHT22;6757;52.258;12.840;2023-11-19T04:47:14;4.60;99.90
7461;DHT22;6757;52.258;12.840;2023-11-19T04:49:42;4.60;99.90
7461;DHT22;6757;52.258;12.840;2023-11-19T04:52:10;4.70;99.90
7461;DHT22;6757;52.258;12.840;2023-11-19T04:54:41;4.70;99.90
7461;DHT22;6757;52.258;12.840;2023-11-19T04:57:09;4.70;99.90
7461;DHT22;6757;52.258;12.840;2023-11-19T04:59:37;4.80;99.90
7461;DHT22;6757;52.258;12.840;2023-11-19T05:02:06;4.80;99.90
7461;DHT22;6757;52.258;12.840;2023-11-19T05:04:33;4.90;99.90
7461;DHT22;6757;52.258;12.840;2023-11-19T05:07:00;4.80;99.90
7461;DHT22;6757;52.258;12.840;2023-11-19T05:09:27;4.90;99.90
7461;DHT22;6757;52.258;12.840;2023-11-19T05:11:54;5.00;99.90
7461;DHT22;6757;52.258;12.840;2023-11-19T05:14:21;5.00;99.90
7461;DHT22;6757;52.258;12.840;2023-11-19T05:16:49;5.00;99.90
7461;DHT22;6757;52.258;12.840;2023-11-19T05:19:18;5.00;99.90
7461;DHT22;6757;52.258;12.840;2023-11-19T05:21:46;5.20;99.90
7461;DHT22;6757;52.258;12.840;2023-11-19T05:24:14;5.20;99.90
7461;DHT22;6757;52.258;12.840;2023-11-19T05:26:41;5.20;99.90
7461;DHT22;6757;52.258;12.840;2023-11-19T05:29:08;5.20;99.90
7461;DHT22;6757;52.258;12.840;2023-11-19T05:31:35;5.20;99.90
7461;DHT22;6757;52.258;12.840;2023-11-19T05:34:03;5.20;99.90
7461;DHT22;6757;52.258;12.840;2023-11-19T05:36:31;5.20;99.90
7461;DHT22;6757;52.258;12.840;2023-11-19T05:38:59;5.30;99.90
7461;DHT22;6757;52.258;12.840;2023-11-19T05:41:26;5.30;99.90
7461;DHT22;6757;52.258;12.840;2023-11-19T05:43:53;5.30;99.90
7461;DHT22;6757;52.258;12.840;2023-11-19T05:46:20;5.30;99.90
7461;DHT22;6757;52.258;12.840;2023-11-19T05:48:48;5.40;99.90
7461;DHT22;6757;52.258;12.840;2023-11-19T05:51:15;5.30;99.90
7461;DHT22;6757;52.258;12.840;2023-11-19T05:53:44;5.30;99.90
7461;DHT22;6757;52.258;12.840;2023-11-19T05:56:14;5.30;99.90
7461;DHT22;6757;52.258;12.840;2023-11-19T05:58:46;5.30;99.90
7461;DHT22;6757;52.258;12.840;2023-11-19T06:01:13;5.30;99.90
7461;DHT22;6757;52.258;12.840;2023-11-19T06:03:40;5.50;99.90
7461;DHT22;6757;52.258;12.840;2023-11-19T06:06:09;5.60;99.90
7461;DHT22;6757;52.258;12.840;2023-11-19T06:08:37;5.70;99.90
7461;DHT22;6757;52.258;12.840;2023-11-19T06:11:06;5.70;99.90
7461;DHT22;6757;52.258;12.840;2023-11-19T06:13:34;5.70;99.90
7461;DHT22;6757;52.258;12.840;2023-11-19T06:16:02;5.60;99.90
7461;DHT22;6757;52.258;12.840;2023-11-19T06:18:29;5.50;99.90
7461;DHT22;6757;52.258;12.840;2023-11-19T06:20:56;5.50;99.90
7461;DHT22;6757;52.258;12.840;2023-11-19T06:23:23;5.60;99.90
7461;DHT22;6757;52.258;12.840;2023-11-19T06:25:50;5.40;99.90
7461;DHT22;6757;52.258;12.840;2023-11-19T06:28:19;5.40;99.90
7461;DHT22;6757;52.258;12.840;2023-11-19T06:30:46;5.40;99.90
7461;DHT22;6757;52.258;12.840;2023-11-19T06:33:13;5.20;99.90
7461;DHT22;6757;52.258;12.840;2023-11-19T06:35:41;5.40;99.90
7461;DHT22;6757;52.258;12.840;2023-11-19T06:38:08;5.50;99.90
7461;DHT22;6757;52.258;12.840;2023-11-19T06:40:35;5.30;99.90
7461;DHT22;6757;52.258;12.840;2023-11-19T06:43:03;5.30;99.90
7461;DHT22;6757;52.258;12.840;2023-11-19T06:45:35;5.40;99.90
7461;DHT22;6757;52.258;12.840;2023-11-19T06:48:02;5.40;99.90
7461;DHT22;6757;52.258;12.840;2023-11-19T06:50:29;5.40;99.90
7461;DHT22;6757;52.258;12.840;2023-11-19T06:52:56;5.50;99.90
7461;DHT22;6757;52.258;12.840;2023-11-19T06:55:25;5.40;99.90
7461;DHT22;6757;52.258;12.840;2023-11-19T06:57:53;5.40;99.90
7461;DHT22;6757;52.258;12.840;2023-11-19T07:00:18;5.50;99.90
7461;DHT22;6757;52.258;12.840;2023-11-19T07:02:47;5.50;99.90
7461;DHT22;6757;52.258;12.840;2023-11-19T07:05:15;5.50;99.90
7461;DHT22;6757;52.258;12.840;2023-11-19T07:07:42;5.50;99.90
7461;DHT22;6757;52.258;12.840;2023-11-19T07:10:09;5.50;99.90
7461;DHT22;6757;52.258;12.840;2023-11-19T07:12:36;5.50;99.90
7461;DHT22;6757;52.258;12.840;2023-11-19T07:15:03;5.60;99.90
7461;DHT22;6757;52.258;12.840;2023-11-19T07:17:31;5.60;99.90
7461;DHT22;6757;52.258;12.840;2023-11-19T07:20:01;5.60;99.90
7461;DHT22;6757;52.258;12.840;2023-11-19T07:22:29;5.90;99.90
7461;DHT22;6757;52.258;12.840;2023-11-19T07:24:56;5.80;99.90
7461;DHT22;6757;52.258;12.840;2023-11-19T07:27:23;5.80;99.90
7461;DHT22;6757;52.258;12.840;2023-11-19T07:29:50;5.80;99.90
7461;DHT22;6757;52.258;12.840;2023-11-19T07:32:17;5.90;99.90
7461;DHT22;6757;52.258;12.840;2023-11-19T07:34:45;6.10;99.90
7461;DHT22;6757;52.258;12.840;2023-11-19T07:37:13;6.50;99.90
7461;DHT22;6757;52.258;12.840;2023-11-19T07:39:42;6.50;99.90
7461;DHT22;6757;52.258;12.840;2023-11-19T07:42:09;6.60;99.90
7461;DHT22;6757;52.258;12.840;2023-11-19T07:44:36;6.80;99.90
7461;DHT22;6757;52.258;12.840;2023-11-19T07:47:03;6.70;99.90
7461;DHT22;6757;52.258;12.840;2023-11-19T07:49:30;6.70;99.90
7461;DHT22;6757;52.258;12.840;2023-11-19T07:51:58;6.80;99.90
7461;DHT22;6757;52.258;12.840;2023-11-19T07:54:27;6.80;99.90
7461;DHT22;6757;52.258;12.840;2023-11-19T07:56:54;6.80;99.90
7461;DHT22;6757;52.258;12.840;2023-11-19T07:59:21;6.80;99.90
7461;DHT22;6757;52.258;12.840;2023-11-19T08:01:49;6.80;99.90
7461;DHT22;6757;52.258;12.840;2023-11-19T08:04:16;6.90;99.90
7461;DHT22;6757;52.258;12.840;2023-11-19T08:06:42;6.90;99.90
7461;DHT22;6757;52.258;12.840;2023-11-19T08:09:10;7.00;99.90
7461;DHT22;6757;52.258;12.840;2023-11-19T08:11:40;7.00;99.90
7461;DHT22;6757;52.258;12.840;2023-11-19T08:14:08;7.10;99.90
7461;DHT22;6757;52.258;12.840;2023-11-19T08:16:37;7.10;99.90
7461;DHT22;6757;52.258;12.840;2023-11-19T08:19:05;7.20;99.90
7461;DHT22;6757;52.258;12.840;2023-11-19T08:21:33;7.10;99.90
7461;DHT22;6757;52.258;12.840;2023-11-19T08:24:00;7.30;99.90
7461;DHT22;6757;52.258;12.840;2023-11-19T08:26:28;7.30;99.90
7461;DHT22;6757;52.258;12.840;2023-11-19T08:28:57;7.40;99.90
7461;DHT22;6757;52.258;12.840;2023-11-19T08:31:24;7.50;99.90
7461;DHT22;6757;52.258;12.840;2023-11-19T08:33:51;7.50;99.90
7461;DHT22;6757;52.258;12.840;2023-11-19T08:36:19;7.50;99.90
7461;DHT22;6757;52.258;12.840;2023-11-19T08:38:47;7.60;99.90
7461;DHT22;6757;52.258;12.840;2023-11-19T08:41:15;7.50;99.90
7461;DHT22;6757;52.258;12.840;2023-11-19T08:43:43;7.70;99.90
7461;DHT22;6757;52.258;12.840;2023-11-19T08:46:11;7.70;99.90
7461;DHT22;6757;52.258;12.840;2023-11-19T08:48:39;7.80;99.90
7461;DHT22;6757;52.258;12.840;2023-11-19T08:51:06;7.90;99.90
7461;DHT22;6757;52.258;12.840;2023-11-19T08:53:34;7.80;99.90
7461;DHT22;6757;52.258;12.840;2023-11-19T08:56:01;7.90;99.90
7461;DHT22;6757;52.258;12.840;2023-11-19T08:58:28;8.10;99.90
7461;DHT22;6757;52.258;12.840;2023-11-19T09:00:57;8.10;99.90
7461;DHT22;6757;52.258;12.840;2023-11-19T09:03:26;8.20;99.90
7461;DHT22;6757;52.258;12.840;2023-11-19T09:05:56;8.30;99.90
7461;DHT22;6757;52.258;12.840;2023-11-19T09:08:24;8.30;99.90
7461;DHT22;6757;52.258;12.840;2023-11-19T09:10:52;8.40;99.90
7461;DHT22;6757;52.258;12.840;2023-11-19T09:13:21;8.40;99.90
7461;DHT22;6757;52.258;12.840;2023-11-19T09:15:49;8.50;99.90
7461;DHT22;6757;52.258;12.840;2023-11-19T09:18:16;8.60;99.90
7461;DHT22;6757;52.258;12.840;2023-11-19T09:20:44;8.70;99.90
7461;DHT22;6757;52.258;12.840;2023-11-19T09:23:11;8.70;99.90
7461;DHT22;6757;52.258;12.840;2023-11-19T09:25:38;8.60;99.90
7461;DHT22;6757;52.258;12.840;2023-11-19T09:28:08;8.80;99.90
7461;DHT22;6757;52.258;12.840;2023-11-19T09:30:36;8.80;99.90
7461;DHT22;6757;52.258;12.840;2023-11-19T09:33:03;8.90;99.90
7461;DHT22;6757;52.258;12.840;2023-11-19T09:35:30;9.00;99.90
7461;DHT22;6757;52.258;12.840;2023-11-19T09:37:59;9.00;99.90
7461;DHT22;6757;52.258;12.840;2023-11-19T09:40:27;9.10;99.90
7461;DHT22;6757;52.258;12.840;2023-11-19T09:42:57;9.10;99.90
7461;DHT22;6757;52.258;12.840;2023-11-19T09:45:27;9.20;99.90
7461;DHT22;6757;52.258;12.840;2023-11-19T09:47:55;9.20;99.90
7461;DHT22;6757;52.258;12.840;2023-11-19T09:50:23;9.30;99.90
7461;DHT22;6757;52.258;12.840;2023-11-19T09:52:50;9.40;99.90
7461;DHT22;6757;52.258;12.840;2023-11-19T09:55:19;9.40;99.90
7461;DHT22;6757;52.258;12.840;2023-11-19T09:57:48;9.40;99.90
7461;DHT22;6757;52.258;12.840;2023-11-19T10:00:17;9.50;99.90
7461;DHT22;6757;52.258;12.840;2023-11-19T10:02:47;9.50;99.90
7461;DHT22;6757;52.258;12.840;2023-11-19T10:05:15;9.60;99.90
7461;DHT22;6757;52.258;12.840;2023-11-19T10:07:42;9.60;99.90
7461;DHT22;6757;52.258;12.840;2023-11-19T10:10:10;9.60;99.90
7461;DHT22;6757;52.258;12.840;2023-11-19T10:12:45;9.50;99.90
7461;DHT22;6757;52.258;12.840;2023-11-19T10:15:19;9.60;99.90
7461;DHT22;6757;52.258;12.840;2023-11-19T10:17:49;9.70;99.90
7461;DHT22;6757;52.258;12.840;2023-11-19T10:20:16;9.70;99.90
7461;DHT22;6757;52.258;12.840;2023-11-19T10:22:44;9.70;99.90
7461;DHT22;6757;52.258;12.840;2023-11-19T10:25:22;9.70;99.90
7461;DHT22;6757;52.258;12.840;2023-11-19T10:27:51;9.80;99.90
7461;DHT22;6757;52.258;12.840;2023-11-19T10:30:20;9.90;99.90
7461;DHT22;6757;52.258;12.840;2023-11-19T10:33:03;10.00;99.90
7461;DHT22;6757;52.258;12.840;2023-11-19T10:35:31;10.10;99.90
7461;DHT22;6757;52.258;12.840;2023-11-19T10:38:00;10.20;99.90
7461;DHT22;6757;52.258;12.840;2023-11-19T10:40:38;10.30;99.90
7461;DHT22;6757;52.258;12.840;2023-11-19T10:43:08;10.40;99.90
7461;DHT22;6757;52.258;12.840;2023-11-19T10:45:36;10.50;99.90
7461;DHT22;6757;52.258;12.840;2023-11-19T10:48:05;10.50;99.90
7461;DHT22;6757;52.258;12.840;2023-11-19T10:50:34;10.50;99.90
7461;DHT22;6757;52.258;12.840;2023-11-19T10:53:02;10.60;99.90
7461;DHT22;6757;52.258;12.840;2023-11-19T10:55:31;10.70;99.90
7461;DHT22;6757;52.258;12.840;2023-11-19T10:58:01;10.80;99.90
7461;DHT22;6757;52.258;12.840;2023-11-19T11:00:40;10.90;99.90
7461;DHT22;6757;52.258;12.840;2023-11-19T11:03:15;11.00;99.90
7461;DHT22;6757;52.258;12.840;2023-11-19T11:05:48;11.20;99.90
7461;DHT22;6757;52.258;12.840;2023-11-19T11:08:16;11.30;99.90
7461;DHT22;6757;52.258;12.840;2023-11-19T11:10:45;11.50;99.90
7461;DHT22;6757;52.258;12.840;2023-11-19T11:13:14;11.60;99.90
7461;DHT22;6757;52.258;12.840;2023-11-19T11:15:43;11.70;99.90
7461;DHT22;6757;52.258;12.840;2023-11-19T11:18:12;11.90;99.90
7461;DHT22;6757;52.258;12.840;2023-11-19T11:20:40;12.00;99.90
7461;DHT22;6757;52.258;12.840;2023-11-19T11:23:23;12.10;99.90
7461;DHT22;6757;52.258;12.840;2023-11-19T11:26:13;12.20;99.90
7461;DHT22;6757;52.258;12.840;2023-11-19T11:28:55;12.30;99.90
7461;DHT22;6757;52.258;12.840;2023-11-19T11:31:43;12.40;99.90
7461;DHT22;6757;52.258;12.840;2023-11-19T11:34:38;12.40;99.90
7461;DHT22;6757;52.258;12.840;2023-11-19T11:37:17;12.40;99.90
7461;DHT22;6757;52.258;12.840;2023-11-19T11:39:46;12.40;99.90
7461;DHT22;6757;52.258;12.840;2023-11-19T11:42:33;12.30;99.90
7461;DHT22;6757;52.258;12.840;2023-11-19T11:45:02;12.30;99.90
7461;DHT22;6757;52.258;12.840;2023-11-19T11:48:09;12.20;99.90
7461;DHT22;6757;52.258;12.840;2023-11-19T11:50:53;12.20;99.90
7461;DHT22;6757;52.258;12.840;2023-11-19T11:53:22;12.20;99.90
7461;DHT22;6757;52.258;12.840;2023-11-19T11:55:55;12.20;99.90
7461;DHT22;6757;52.258;12.840;2023-11-19T11:58:31;12.20;99.90
7461;DHT22;6757;52.258;12.840;2023-11-19T12:01:02;12.20;99.90
7461;DHT22;6757;52.258;12.840;2023-11-19T12:03:33;13.00;99.90
7461;DHT22;6757;52.258;12.840;2023-11-19T12:06:00;12.20;99.90
7461;DHT22;6757;52.258;12.840;2023-11-19T12:08:29;12.20;99.90
7461;DHT22;6757;52.258;12.840;2023-11-19T12:10:58;12.20;99.90
7461;DHT22;6757;52.258;12.840;2023-11-19T12:13:42;12.10;99.90
7461;DHT22;6757;52.258;12.840;2023-11-19T12:16:14;12.10;99.90
7461;DHT22;6757;52.258;12.840;2023-11-19T12:18:47;12.00;99.90
7461;DHT22;6757;52.258;12.840;2023-11-19T12:21:28;12.60;99.90
7461;DHT22;6757;52.258;12.840;2023-11-19T12:23:58;12.10;99.90
7461;DHT22;6757;52.258;12.840;2023-11-19T12:26:36;12.10;99.90
7461;DHT22;6757;52.258;12.840;2023-11-19T12:29:05;12.10;99.90
7461;DHT22;6757;52.258;12.840;2023-11-19T12:31:32;12.10;99.90
7461;DHT22;6757;52.258;12.840;2023-11-19T12:34:09;12.10;99.90
7461;DHT22;6757;52.258;12.840;2023-11-19T12:36:39;12.10;99.90
7461;DHT22;6757;52.258;12.840;2023-11-19T12:39:08;12.10;99.90
7461;DHT22;6757;52.258;12.840;2023-11-19T12:41:51;12.00;99.90
7461;DHT22;6757;52.258;12.840;2023-11-19T12:44:19;12.00;99.90
7461;DHT22;6757;52.258;12.840;2023-11-19T12:46:46;12.00;99.90
7461;DHT22;6757;52.258;12.840;2023-11-19T12:49:16;12.00;99.90
7461;DHT22;6757;52.258;12.840;2023-11-19T12:51:43;12.00;99.90
7461;DHT22;6757;52.258;12.840;2023-11-19T12:54:11;12.10;99.90
7461;DHT22;6757;52.258;12.840;2023-11-19T12:56:39;12.20;99.90
7461;DHT22;6757;52.258;12.840;2023-11-19T12:59:11;12.40;99.90
7461;DHT22;6757;52.258;12.840;2023-11-19T13:01:39;12.50;99.90
7461;DHT22;6757;52.258;12.840;2023-11-19T13:04:18;12.60;99.90
7461;DHT22;6757;52.258;12.840;2023-11-19T13:06:46;12.60;99.90
7461;DHT22;6757;52.258;12.840;2023-11-19T13:09:23;12.60;99.90
7461;DHT22;6757;52.258;12.840;2023-11-19T13:11:51;12.50;99.90
7461;DHT22;6757;52.258;12.840;2023-11-19T13:14:20;12.50;99.90
7461;DHT22;6757;52.258;12.840;2023-11-19T13:16:47;12.40;99.90
7461;DHT22;6757;52.258;12.840;2023-11-19T13:19:20;12.40;99.90
7461;DHT22;6757;52.258;12.840;2023-11-19T13:21:49;12.40;99.90
7461;DHT22;6757;52.258;12.840;2023-11-19T13:24:16;12.30;99.90
7461;DHT22;6757;52.258;12.840;2023-11-19T13:26:44;12.30;99.90
7461;DHT22;6757;52.258;12.840;2023-11-19T13:29:12;12.20;99.90
7461;DHT22;6757;52.258;12.840;2023-11-19T13:31:40;12.10;99.90
7461;DHT22;6757;52.258;12.840;2023-11-19T13:34:08;12.20;99.90
7461;DHT22;6757;52.258;12.840;2023-11-19T13:36:37;12.20;99.90
7461;DHT22;6757;52.258;12.840;2023-11-19T13:39:04;12.20;99.90
7461;DHT22;6757;52.258;12.840;2023-11-19T13:41:32;12.20;99.90
7461;DHT22;6757;52.258;12.840;2023-11-19T13:44:00;12.20;99.90
7461;DHT22;6757;52.258;12.840;2023-11-19T13:46:27;12.10;99.90
7461;DHT22;6757;52.258;12.840;2023-11-19T13:48:55;12.10;99.90
7461;DHT22;6757;52.258;12.840;2023-11-19T13:51:22;12.10;99.90
7461;DHT22;6757;52.258;12.840;2023-11-19T13:53:51;12.10;99.90
7461;DHT22;6757;52.258;12.840;2023-11-19T13:56:19;12.10;99.90
7461;DHT22;6757;52.258;12.840;2023-11-19T13:58:46;12.10;99.90
7461;DHT22;6757;52.258;12.840;2023-11-19T14:01:13;12.10;99.90
7461;DHT22;6757;52.258;12.840;2023-11-19T14:03:42;12.10;99.90
7461;DHT22;6757;52.258;12.840;2023-11-19T14:06:08;12.10;99.90
7461;DHT22;6757;52.258;12.840;2023-11-19T14:08:38;12.10;99.90
7461;DHT22;6757;52.258;12.840;2023-11-19T14:11:07;12.00;99.90
7461;DHT22;6757;52.258;12.840;2023-11-19T14:13:34;12.10;99.90
7461;DHT22;6757;52.258;12.840;2023-11-19T14:16:01;12.10;99.90
7461;DHT22;6757;52.258;12.840;2023-11-19T14:18:32;12.10;99.90
7461;DHT22;6757;52.258;12.840;2023-11-19T14:21:00;12.10;99.90
7461;DHT22;6757;52.258;12.840;2023-11-19T14:23:28;12.10;99.90
7461;DHT22;6757;52.258;12.840;2023-11-19T14:25:55;12.10;99.90
7461;DHT22;6757;52.258;12.840;2023-11-19T14:28:27;12.00;99.90
7461;DHT22;6757;52.258;12.840;2023-11-19T14:30:54;12.00;99.90
7461;DHT22;6757;52.258;12.840;2023-11-19T14:33:22;12.00;99.90
7461;DHT22;6757;52.258;12.840;2023-11-19T14:35:51;12.00;99.90
7461;DHT22;6757;52.258;12.840;2023-11-19T14:38:19;12.00;99.90
7461;DHT22;6757;52.258;12.840;2023-11-19T14:40:47;12.00;99.90
7461;DHT22;6757;52.258;12.840;2023-11-19T14:43:14;12.00;99.90
7461;DHT22;6757;52.258;12.840;2023-11-19T14:45:43;12.00;99.90
7461;DHT22;6757;52.258;12.840;2023-11-19T14:48:10;11.90;99.90
7461;DHT22;6757;52.258;12.840;2023-11-19T14:50:44;11.90;99.90
7461;DHT22;6757;52.258;12.840;2023-11-19T14:53:11;11.90;99.90
7461;DHT22;6757;52.258;12.840;2023-11-19T14:55:38;11.80;99.90
7461;DHT22;6757;52.258;12.840;2023-11-19T14:58:05;11.80;99.90
7461;DHT22;6757;52.258;12.840;2023-11-19T15:00:33;11.70;99.90
7461;DHT22;6757;52.258;12.840;2023-11-19T15:03:04;11.70;99.90
7461;DHT22;6757;52.258;12.840;2023-11-19T15:05:31;11.60;99.90
7461;DHT22;6757;52.258;12.840;2023-11-19T15:07:59;11.60;99.90
7461;DHT22;6757;52.258;12.840;2023-11-19T15:10:26;11.60;99.90
7461;DHT22;6757;52.258;12.840;2023-11-19T15:12:52;11.60;99.90
7461;DHT22;6757;52.258;12.840;2023-11-19T15:15:20;11.60;99.90
7461;DHT22;6757;52.258;12.840;2023-11-19T15:17:47;11.50;99.90
7461;DHT22;6757;52.258;12.840;2023-11-19T15:20:15;11.50;99.90
7461;DHT22;6757;52.258;12.840;2023-11-19T15:22:43;11.50;99.90
7461;DHT22;6757;52.258;12.840;2023-11-19T15:25:10;11.50;99.90
7461;DHT22;6757;52.258;12.840;2023-11-19T15:27:38;11.50;99.90
7461;DHT22;6757;52.258;12.840;2023-11-19T15:30:06;11.50;99.90
7461;DHT22;6757;52.258;12.840;2023-11-19T15:32:35;11.50;99.90
7461;DHT22;6757;52.258;12.840;2023-11-19T15:35:06;11.50;99.90
7461;DHT22;6757;52.258;12.840;2023-11-19T15:37:35;11.40;99.90
7461;DHT22;6757;52.258;12.840;2023-11-19T15:40:04;11.40;99.90
7461;DHT22;6757;52.258;12.840;2023-11-19T15:42:33;11.40;99.90
7461;DHT22;6757;52.258;12.840;2023-11-19T15:45:01;11.40;99.90
7461;DHT22;6757;52.258;12.840;2023-11-19T15:47:30;11.40;99.90
7461;DHT22;6757;52.258;12.840;2023-11-19T15:49:57;11.40;99.90
7461;DHT22;6757;52.258;12.840;2023-11-19T15:52:24;11.40;99.90
7461;DHT22;6757;52.258;12.840;2023-11-19T15:54:53;11.50;99.90
7461;DHT22;6757;52.258;12.840;2023-11-19T15:57:20;11.50;99.90
7461;DHT22;6757;52.258;12.840;2023-11-19T15:59:48;11.60;99.90
7461;DHT22;6757;52.258;12.840;2023-11-19T16:02:16;11.60;99.90
7461;DHT22;6757;52.258;12.840;2023-11-19T16:04:43;11.60;99.90
7461;DHT22;6757;52.258;12.840;2023-11-19T16:07:12;11.60;99.90
7461;DHT22;6757;52.258;12.840;2023-11-19T16:09:40;11.60;99.90